^^
Top

Current Conditions

Updated: 4/2/2020 2:49:09 AM
Summary / Temperature Wind Rain
Clear
47.1°F

 Cool 

Feels like: 47°F
1 hour 24 hour
0.4°F 0.4°F colder than last hour. 5.6°F 5.6°F colder than yesterday at this time.
High Low
Today
53.2°F
12:00 AM
Average: 73°F
   90°F (1944)
Today
47.1°F
2:48 AM
Average: 44°F
   27°F (1955)
Yesterday
72.3°F
3:53 PM
Yesterday
48.2°F
7:00 AM
Wind from the WNW WNW
0.0 mph
Gust: 0.0 mph
0 Beaufort BS
Calm
Today: 2.3 - 12:01 AM
Month: 9.0 mph - April 1
Rain Today: 0.00 in
Current Rate
0.000 in /hr
Max Rate
0.000 in /hr
Yesterday
0.00 in
Storm
0.00 in
Last Rain: 3 days ago
Month - April: 0.00 in
Season (Oct 1-Sep 30): 6.80 in
Humidity / Barometer Sun / Moon
Humidity
76% Decreased 5.0% in the last hour.
Dew Point
39.9°F Decreased 2.0°F in the last hour.
Barometer
29.956 inHg Rising 0.01 inHgSteady

6:40 AM

7:19 PM

1:20 PM

3:14 AM
Sky Conditions Illuminance / Ultraviolet
Summary: Mostly clear
Cloud Cover: 21%
Visibility: 10 miles
Dark Sky - 2:45 AM PDT
Lux: 0   Darkness  
Info Lux 2:45 AM PDT
UV Index: 0   Low  
Info UV 2:45 AM PDT
Air Quality Pollen Fire Danger
PM2.5: 4 μg/m3
Ozone: 29 ppb
PurpleAir | Valley Air - 2:45 AM PDT
Oak, Juniper, and Poplar
Level: 8.9  Medium-High 
Pollen.com - 12:15 AM PDT
CB Index: 1   Low  
Info CBI
Fires: CAL FIRE | InciWeb | NIFC
Alternate PWS dashboard

Local Alerts Local Forecast
Local NWS Alerts
Today

Sunny

High 68
Tonight

Clear

Low 40
Fri

Mostly
Sunny
High 69
Fri night

Mostly
Clear
Low 42
Sat

Chance of
Rain
High 69
Sat night

Rain
Showers
Low 48
Sun

Rain

High 63

Local Radar Local Satellite Park Cam Sky Cam
Local Radar Local Satellite Park Cam Sky Cam


Nearby Airport Stations

KVIS - Visalia, California, USA
Distance from station: W 14mi, 23km
Updated: Thu, 02-Apr-2020 1:56 AM PDT
Mostly cloudy
Mostly cloudy
 Wind from NW
Wind: NW 13 mph , 20 km/h
Temperature: 50°F , 10°C
Wind Chill: 45°F , 7°C
Dew Point: 37°F , 3°C
Humidity: 62%
Barometer: 29.96 inHg , 1014.6 hPa
Clouds: Mostly cloudy
Visibility: 10 miles , 16 km
Cloud details: Mostly cloudy 6000 ft
2020/04/02 08:56 KVIS 020856Z AUTO 32011KT 10SM BKN060 10/03 A2996 RMK AO2 SLP154 T01000033 53013
KPTV - Porterville, California, USA
Distance from station: SSE 19mi, 31km
Updated: Thu, 02-Apr-2020 1:56 AM PDT
Clear
Clear
 Wind from W
Wind: W 7 mph , 11 km/h
Temperature: 46°F , 8°C
Wind Chill: 42°F , 6°C
Dew Point: 39°F , 4°C
Humidity: 76%
Barometer: 29.97 inHg , 1014.9 hPa
Clouds: Clear
Visibility: 10 miles , 16 km
2020/04/02 08:56 KPTV 020856Z AUTO 27006KT 10SM CLR 08/04 A2997 RMK AO2 SLP148 T00830039 51015

METAR reports script courtesy of Saratoga Weather.